13 Mayıs 2011, Cuma 11:03:01

121 YOLCULU UÇAK GERİ DÖNMEK ZORUNDA KALDI

Türk Hava Yolları'nın İstanbul-Şoçi seferini yapması planlanan uçak kalkıştan kısa bir süre sonra Atatürk Havalimanı'na geri dönmek zorunda kaldı.
  • Tailwind olsa uçar,başarılıdır,güvenlik konusunda iyidir....
  • yogurtmu dedin
  • URSS 122300Z 31002MPS 0700 R02/1400U -DZ FG VV002 12/11 Q1008 NOSIG RMK QBB080 QFE755 MT OBSC OBST OBSC 02CLRD70 URSS 122230Z 24002MPS 0600 R02/1000VP1500D FG VV002 12/11 Q1009 NOSIG RMK QBB080 QFE755 MT OBSC OBST OBSC 02CLRD70 URSS 122200Z 28002MPS 0900 R02/P1500D FG VV002 12/11 Q1009 NOSIG RMK QBB070 QFE755 MT OBSC OBST OBSC 02CLRD70 URSS 122130Z 28002MPS 3100 BR OVC003 12/11 Q1009 NOSIG RMK QBB090 QFE755 MT OBSC OBST OBSC 02CLRD70
  • URSS 130230Z 34001MPS 0400 R02/0350V0500N FG VV002 12/11 Q1007 NOSIG RMK QBB060 QFE754 MT OBSC OBST OBSC 02CLRD70 URSS 130200Z 30002MPS 0350 R02/0450V0550N FG VV002 12/11 Q1007 NOSIG RMK QBB060 QFE754 MT OBSC OBST OBSC 02CLRD70 URSS 130130Z 29002MPS 0500 R02/0650N FG VV002 12/11 Q1007 NOSIG RMK QBB060 QFE754 MT OBSC OBST OBSC 02CLRD70 URSS 130100Z 26002MPS 0500 R02/1000VP1500D FG VV002 12/11 Q1007 NOSIG RMK QBB060 QFE754 MT OBSC OBST OBSC 02CLRD70 URSS 130030Z 02002MPS 2800 BR OVC002 12/11 Q1007 NOSIG RMK QBB080 QFE754 MT OBSC OBST OBSC 02CLRD70 URSS 130000Z 31002MPS 0700 R02/1400D -DZ FG VV002 12/11 Q1008 NOSIG RMK QBB080 QFE754 MT OBSC OBST OBSC 02CLRD70 URSS 122330Z 32001MPS 1700 -DZ BR OVC002 12/11 Q1008 NOSIG RMK QBB060 QFE755 MT

Türk Hava Yolları'nın bu gece 00:15'te İstanbul-Soçi seferini yapmak üzere havalanan uçağı, varış meydanındaki hava şartlarının limit altında olması nedeniyle kalkıştan kısa bir süre geri döndü.

Atatürk Havalimanı'na geri dönen TK295 sefer sayılı A320-232 tipi yolcu uçağı iniş sonrası hava şartlarının daha kötüleşmesi nedeniyle kalkıştan vazgeçti.

TC-JPH kuyruk tescilli uçakta 121 yolcu bulunuyordu.

©AirportHaber.com

121 YOLCULU UÇAK GERİ DÖNMEK ZORUNDA KALDI

Facebook Yorum

Yorumlar Tüm Yorumlar (6)

Misafir ~ 6 yıl önce
Tailwind olsa uçar,başarılıdır,güvenlik konusunda iyidir....

Yanıtla

Kalan karakter 1000
Misafir ~ 6 yıl önce
yogurtmu dedin

Yanıtla

Kalan karakter 1000
Misafir ~ 6 yıl önce
URSS 122300Z 31002MPS 0700 R02/1400U -DZ FG VV002 12/11 Q1008 NOSIG RMK QBB080 QFE755 MT OBSC OBST OBSC 02CLRD70 URSS 122230Z 24002MPS 0600 R02/1000VP1500D FG VV002 12/11 Q1009 NOSIG RMK QBB080 QFE755 MT OBSC OBST OBSC 02CLRD70 URSS 122200Z 28002MPS 0900 R02/P1500D FG VV002 12/11 Q1009 NOSIG RMK QBB070 QFE755 MT OBSC OBST OBSC 02CLRD70 URSS 122130Z 28002MPS 3100 BR OVC003 12/11 Q1009 NOSIG RMK QBB090 QFE755 MT OBSC OBST OBSC 02CLRD70

Yanıtla

Kalan karakter 1000
Misafir ~ 6 yıl önce
URSS 130230Z 34001MPS 0400 R02/0350V0500N FG VV002 12/11 Q1007 NOSIG RMK QBB060 QFE754 MT OBSC OBST OBSC 02CLRD70 URSS 130200Z 30002MPS 0350 R02/0450V0550N FG VV002 12/11 Q1007 NOSIG RMK QBB060 QFE754 MT OBSC OBST OBSC 02CLRD70 URSS 130130Z 29002MPS 0500 R02/0650N FG VV002 12/11 Q1007 NOSIG RMK QBB060 QFE754 MT OBSC OBST OBSC 02CLRD70 URSS 130100Z 26002MPS 0500 R02/1000VP1500D FG VV002 12/11 Q1007 NOSIG RMK QBB060 QFE754 MT OBSC OBST OBSC 02CLRD70 URSS 130030Z 02002MPS 2800 BR OVC002 12/11 Q1007 NOSIG RMK QBB080 QFE754 MT OBSC OBST OBSC 02CLRD70 URSS 130000Z 31002MPS 0700 R02/1400D -DZ FG VV002 12/11 Q1008 NOSIG RMK QBB080 QFE754 MT OBSC OBST OBSC 02CLRD70 URSS 122330Z 32001MPS 1700 -DZ BR OVC002 12/11 Q1008 NOSIG RMK QBB060 QFE755 MT

Yanıtla

Kalan karakter 1000

Yorum Gönder

Kalan karakter 1000